sensor_id;sensor_type;location;lat;lon;timestamp;P1;durP1;ratioP1;P2;durP2;ratioP2
59147;SDS011;44930;52.878;6.168;2023-03-01T00:01:48;22.58;;;14.55;;
59147;SDS011;44930;52.878;6.168;2023-03-01T00:04:14;22.98;;;14.95;;
59147;SDS011;44930;52.878;6.168;2023-03-01T00:06:40;20.85;;;14.32;;
59147;SDS011;44930;52.878;6.168;2023-03-01T00:09:08;22.48;;;14.52;;
59147;SDS011;44930;52.878;6.168;2023-03-01T00:11:33;19.40;;;13.90;;
59147;SDS011;44930;52.878;6.168;2023-03-01T00:14:00;21.25;;;13.82;;
59147;SDS011;44930;52.878;6.168;2023-03-01T00:16:27;21.05;;;13.50;;
59147;SDS011;44930;52.878;6.168;2023-03-01T00:18:54;19.52;;;14.10;;
59147;SDS011;44930;52.878;6.168;2023-03-01T00:21:21;27.25;;;14.43;;
59147;SDS011;44930;52.878;6.168;2023-03-01T00:23:47;20.60;;;14.55;;
59147;SDS011;44930;52.878;6.168;2023-03-01T00:26:16;17.98;;;13.07;;
59147;SDS011;44930;52.878;6.168;2023-03-01T00:28:43;19.42;;;12.77;;
59147;SDS011;44930;52.878;6.168;2023-03-01T00:31:10;20.77;;;12.93;;
59147;SDS011;44930;52.878;6.168;2023-03-01T00:33:37;22.88;;;14.40;;
59147;SDS011;44930;52.878;6.168;2023-03-01T00:36:03;21.30;;;14.05;;
59147;SDS011;44930;52.878;6.168;2023-03-01T00:38:30;23.48;;;14.38;;
59147;SDS011;44930;52.878;6.168;2023-03-01T00:41:05;22.15;;;13.77;;
59147;SDS011;44930;52.878;6.168;2023-03-01T00:43:39;18.25;;;13.80;;
59147;SDS011;44930;52.878;6.168;2023-03-01T00:46:06;20.55;;;12.90;;
59147;SDS011;44930;52.878;6.168;2023-03-01T00:48:32;19.98;;;13.93;;
59147;SDS011;44930;52.878;6.168;2023-03-01T00:51:05;20.02;;;13.70;;
59147;SDS011;44930;52.878;6.168;2023-03-01T00:53:32;21.58;;;14.02;;
59147;SDS011;44930;52.878;6.168;2023-03-01T00:55:58;18.40;;;12.32;;
59147;SDS011;44930;52.878;6.168;2023-03-01T00:58:24;18.65;;;11.80;;
59147;SDS011;44930;52.878;6.168;2023-03-01T01:00:50;19.30;;;12.75;;
59147;SDS011;44930;52.878;6.168;2023-03-01T01:03:17;20.48;;;13.45;;
59147;SDS011;44930;52.878;6.168;2023-03-01T01:05:43;22.50;;;14.52;;
59147;SDS011;44930;52.878;6.168;2023-03-01T01:08:09;21.85;;;13.35;;
59147;SDS011;44930;52.878;6.168;2023-03-01T01:10:35;18.50;;;13.05;;
59147;SDS011;44930;52.878;6.168;2023-03-01T01:13:01;24.92;;;13.30;;
59147;SDS011;44930;52.878;6.168;2023-03-01T01:15:27;18.70;;;13.02;;
59147;SDS011;44930;52.878;6.168;2023-03-01T01:17:53;17.90;;;12.15;;
59147;SDS011;44930;52.878;6.168;2023-03-01T01:20:19;18.45;;;12.45;;
59147;SDS011;44930;52.878;6.168;2023-03-01T01:22:45;19.60;;;13.35;;
59147;SDS011;44930;52.878;6.168;2023-03-01T01:25:11;19.33;;;13.75;;
59147;SDS011;44930;52.878;6.168;2023-03-01T01:27:37;21.77;;;14.77;;
59147;SDS011;44930;52.878;6.168;2023-03-01T01:30:03;24.13;;;15.85;;
59147;SDS011;44930;52.878;6.168;2023-03-01T01:32:29;22.65;;;14.90;;
59147;SDS011;44930;52.878;6.168;2023-03-01T01:34:55;19.20;;;13.93;;
59147;SDS011;44930;52.878;6.168;2023-03-01T01:37:21;23.88;;;15.27;;
59147;SDS011;44930;52.878;6.168;2023-03-01T01:39:47;22.15;;;15.70;;
59147;SDS011;44930;52.878;6.168;2023-03-01T01:42:15;22.05;;;15.10;;
59147;SDS011;44930;52.878;6.168;2023-03-01T01:44:42;22.60;;;15.45;;
59147;SDS011;44930;52.878;6.168;2023-03-01T01:47:17;19.02;;;13.93;;
59147;SDS011;44930;52.878;6.168;2023-03-01T01:49:51;78.07;;;18.17;;
59147;SDS011;44930;52.878;6.168;2023-03-01T01:52:40;62.33;;;20.63;;
59147;SDS011;44930;52.878;6.168;2023-03-01T01:55:07;79.97;;;20.17;;
59147;SDS011;44930;52.878;6.168;2023-03-01T01:57:36;138.73;;;22.35;;
59147;SDS011;44930;52.878;6.168;2023-03-01T02:00:08;226.43;;;27.45;;
59147;SDS011;44930;52.878;6.168;2023-03-01T02:02:34;145.18;;;24.67;;
59147;SDS011;44930;52.878;6.168;2023-03-01T02:05:06;186.57;;;28.30;;
59147;SDS011;44930;52.878;6.168;2023-03-01T02:07:38;187.65;;;26.83;;
59147;SDS011;44930;52.878;6.168;2023-03-01T02:10:05;176.95;;;26.60;;
59147;SDS011;44930;52.878;6.168;2023-03-01T02:12:31;206.70;;;28.00;;
59147;SDS011;44930;52.878;6.168;2023-03-01T02:14:58;151.65;;;24.40;;
59147;SDS011;44930;52.878;6.168;2023-03-01T02:17:24;212.02;;;25.65;;
59147;SDS011;44930;52.878;6.168;2023-03-01T02:19:58;114.07;;;21.50;;
59147;SDS011;44930;52.878;6.168;2023-03-01T02:22:39;114.63;;;17.58;;
59147;SDS011;44930;52.878;6.168;2023-03-01T02:27:47;83.07;;;20.48;;
59147;SDS011;44930;52.878;6.168;2023-03-01T02:30:15;111.32;;;20.88;;
59147;SDS011;44930;52.878;6.168;2023-03-01T02:32:41;196.82;;;26.17;;
59147;SDS011;44930;52.878;6.168;2023-03-01T02:35:09;129.35;;;23.52;;
59147;SDS011;44930;52.878;6.168;2023-03-01T02:37:38;136.85;;;22.80;;
59147;SDS011;44930;52.878;6.168;2023-03-01T02:40:08;145.35;;;24.05;;
59147;SDS011;44930;52.878;6.168;2023-03-01T02:42:41;133.52;;;21.88;;
59147;SDS011;44930;52.878;6.168;2023-03-01T02:45:18;307.55;;;24.17;;
59147;SDS011;44930;52.878;6.168;2023-03-01T02:47:44;214.63;;;21.95;;
59147;SDS011;44930;52.878;6.168;2023-03-01T02:50:38;265.77;;;23.70;;
59147;SDS011;44930;52.878;6.168;2023-03-01T02:55:57;206.77;;;20.52;;
59147;SDS011;44930;52.878;6.168;2023-03-01T02:58:24;160.55;;;17.27;;
59147;SDS011;44930;52.878;6.168;2023-03-01T03:00:50;189.50;;;21.05;;
59147;SDS011;44930;52.878;6.168;2023-03-01T03:03:16;131.63;;;19.25;;
59147;SDS011;44930;52.878;6.168;2023-03-01T03:05:44;122.07;;;15.63;;
59147;SDS011;44930;52.878;6.168;2023-03-01T03:08:10;117.80;;;17.38;;
59147;SDS011;44930;52.878;6.168;2023-03-01T03:10:37;106.38;;;13.65;;
59147;SDS011;44930;52.878;6.168;2023-03-01T03:13:06;128.80;;;16.42;;
59147;SDS011;44930;52.878;6.168;2023-03-01T03:15:33;52.83;;;12.05;;
59147;SDS011;44930;52.878;6.168;2023-03-01T03:18:02;115.70;;;13.73;;
59147;SDS011;44930;52.878;6.168;2023-03-01T03:20:29;52.95;;;11.50;;
59147;SDS011;44930;52.878;6.168;2023-03-01T03:22:55;44.63;;;10.18;;
59147;SDS011;44930;52.878;6.168;2023-03-01T03:25:22;35.78;;;12.25;;
59147;SDS011;44930;52.878;6.168;2023-03-01T03:27:48;41.15;;;11.32;;
59147;SDS011;44930;52.878;6.168;2023-03-01T03:30:16;36.97;;;10.80;;
59147;SDS011;44930;52.878;6.168;2023-03-01T03:32:43;55.58;;;11.38;;
59147;SDS011;44930;52.878;6.168;2023-03-01T03:35:17;55.05;;;11.82;;
59147;SDS011;44930;52.878;6.168;2023-03-01T03:37:43;43.35;;;9.63;;
59147;SDS011;44930;52.878;6.168;2023-03-01T03:40:29;40.45;;;10.70;;
59147;SDS011;44930;52.878;6.168;2023-03-01T03:42:55;85.55;;;12.88;;
59147;SDS011;44930;52.878;6.168;2023-03-01T03:45:21;49.10;;;9.95;;
59147;SDS011;44930;52.878;6.168;2023-03-01T03:47:47;118.63;;;13.90;;
59147;SDS011;44930;52.878;6.168;2023-03-01T03:50:14;65.03;;;11.80;;
59147;SDS011;44930;52.878;6.168;2023-03-01T03:52:40;69.18;;;10.85;;
59147;SDS011;44930;52.878;6.168;2023-03-01T03:55:07;142.85;;;13.07;;
59147;SDS011;44930;52.878;6.168;2023-03-01T03:57:37;102.28;;;10.95;;
59147;SDS011;44930;52.878;6.168;2023-03-01T04:00:04;59.90;;;11.45;;
59147;SDS011;44930;52.878;6.168;2023-03-01T04:02:37;90.13;;;11.35;;
59147;SDS011;44930;52.878;6.168;2023-03-01T04:05:03;81.53;;;10.85;;
59147;SDS011;44930;52.878;6.168;2023-03-01T04:07:29;82.38;;;10.63;;
59147;SDS011;44930;52.878;6.168;2023-03-01T04:09:55;54.88;;;9.60;;
59147;SDS011;44930;52.878;6.168;2023-03-01T04:12:21;30.40;;;10.25;;
59147;SDS011;44930;52.878;6.168;2023-03-01T04:14:48;30.90;;;9.63;;
59147;SDS011;44930;52.878;6.168;2023-03-01T04:17:14;39.22;;;10.20;;
59147;SDS011;44930;52.878;6.168;2023-03-01T04:19:40;61.58;;;11.45;;
59147;SDS011;44930;52.878;6.168;2023-03-01T04:22:09;26.60;;;9.00;;
59147;SDS011;44930;52.878;6.168;2023-03-01T04:24:36;15.40;;;9.10;;
59147;SDS011;44930;52.878;6.168;2023-03-01T04:27:02;13.20;;;8.88;;
59147;SDS011;44930;52.878;6.168;2023-03-01T04:29:28;12.93;;;9.38;;
59147;SDS011;44930;52.878;6.168;2023-03-01T04:31:54;11.32;;;8.82;;
59147;SDS011;44930;52.878;6.168;2023-03-01T04:34:20;11.98;;;9.40;;
59147;SDS011;44930;52.878;6.168;2023-03-01T04:36:46;11.52;;;8.93;;
59147;SDS011;44930;52.878;6.168;2023-03-01T04:39:12;11.57;;;8.63;;
59147;SDS011;44930;52.878;6.168;2023-03-01T04:41:38;11.65;;;8.70;;
59147;SDS011;44930;52.878;6.168;2023-03-01T04:44:04;10.93;;;8.18;;
59147;SDS011;44930;52.878;6.168;2023-03-01T04:46:30;9.93;;;7.55;;
59147;SDS011;44930;52.878;6.168;2023-03-01T04:48:56;10.35;;;8.02;;
59147;SDS011;44930;52.878;6.168;2023-03-01T04:51:23;11.50;;;9.25;;
59147;SDS011;44930;52.878;6.168;2023-03-01T04:53:49;10.60;;;8.38;;
59147;SDS011;44930;52.878;6.168;2023-03-01T04:56:15;11.40;;;9.02;;
59147;SDS011;44930;52.878;6.168;2023-03-01T04:58:43;11.95;;;8.57;;
59147;SDS011;44930;52.878;6.168;2023-03-01T05:01:13;10.13;;;7.88;;
59147;SDS011;44930;52.878;6.168;2023-03-01T05:03:46;13.02;;;9.02;;
59147;SDS011;44930;52.878;6.168;2023-03-01T05:06:12;12.63;;;9.15;;
59147;SDS011;44930;52.878;6.168;2023-03-01T05:08:39;11.18;;;8.10;;
59147;SDS011;44930;52.878;6.168;2023-03-01T05:11:06;11.32;;;8.68;;
59147;SDS011;44930;52.878;6.168;2023-03-01T05:13:33;11.05;;;8.30;;
59147;SDS011;44930;52.878;6.168;2023-03-01T05:16:00;11.93;;;8.90;;
59147;SDS011;44930;52.878;6.168;2023-03-01T05:18:28;12.23;;;9.38;;
59147;SDS011;44930;52.878;6.168;2023-03-01T05:20:55;10.27;;;7.85;;
59147;SDS011;44930;52.878;6.168;2023-03-01T05:23:23;10.82;;;8.60;;
59147;SDS011;44930;52.878;6.168;2023-03-01T05:25:49;11.52;;;8.38;;
59147;SDS011;44930;52.878;6.168;2023-03-01T05:28:17;11.77;;;8.55;;
59147;SDS011;44930;52.878;6.168;2023-03-01T05:30:45;11.68;;;9.10;;
59147;SDS011;44930;52.878;6.168;2023-03-01T05:33:11;10.25;;;8.20;;
59147;SDS011;44930;52.878;6.168;2023-03-01T05:35:41;12.52;;;8.82;;
59147;SDS011;44930;52.878;6.168;2023-03-01T05:38:08;12.30;;;9.27;;
59147;SDS011;44930;52.878;6.168;2023-03-01T05:40:38;12.02;;;9.48;;
59147;SDS011;44930;52.878;6.168;2023-03-01T05:43:04;12.68;;;9.65;;
59147;SDS011;44930;52.878;6.168;2023-03-01T05:45:30;12.23;;;9.32;;
59147;SDS011;44930;52.878;6.168;2023-03-01T05:47:57;11.43;;;8.80;;
59147;SDS011;44930;52.878;6.168;2023-03-01T05:50:27;13.35;;;9.02;;
59147;SDS011;44930;52.878;6.168;2023-03-01T05:52:57;12.15;;;8.90;;
59147;SDS011;44930;52.878;6.168;2023-03-01T05:55:25;10.15;;;8.07;;
59147;SDS011;44930;52.878;6.168;2023-03-01T05:57:51;11.55;;;8.65;;
59147;SDS011;44930;52.878;6.168;2023-03-01T06:00:18;12.98;;;8.43;;
59147;SDS011;44930;52.878;6.168;2023-03-01T06:02:45;10.98;;;8.30;;
59147;SDS011;44930;52.878;6.168;2023-03-01T06:05:11;11.25;;;8.35;;
59147;SDS011;44930;52.878;6.168;2023-03-01T06:07:38;11.63;;;8.82;;
59147;SDS011;44930;52.878;6.168;2023-03-01T06:10:04;12.10;;;8.48;;
59147;SDS011;44930;52.878;6.168;2023-03-01T06:12:31;14.13;;;10.50;;
59147;SDS011;44930;52.878;6.168;2023-03-01T06:14:57;15.73;;;11.55;;
59147;SDS011;44930;52.878;6.168;2023-03-01T06:17:24;13.77;;;9.05;;
59147;SDS011;44930;52.878;6.168;2023-03-01T06:19:50;11.88;;;8.48;;
59147;SDS011;44930;52.878;6.168;2023-03-01T06:22:16;10.98;;;7.80;;
59147;SDS011;44930;52.878;6.168;2023-03-01T06:24:42;11.00;;;8.75;;
59147;SDS011;44930;52.878;6.168;2023-03-01T06:27:08;12.02;;;8.70;;
59147;SDS011;44930;52.878;6.168;2023-03-01T06:29:34;11.10;;;8.50;;
59147;SDS011;44930;52.878;6.168;2023-03-01T06:31:59;12.93;;;8.55;;
59147;SDS011;44930;52.878;6.168;2023-03-01T06:34:25;12.27;;;9.95;;
59147;SDS011;44930;52.878;6.168;2023-03-01T06:36:51;12.15;;;8.90;;
59147;SDS011;44930;52.878;6.168;2023-03-01T06:39:17;12.02;;;8.95;;
59147;SDS011;44930;52.878;6.168;2023-03-01T06:41:44;10.85;;;8.30;;
59147;SDS011;44930;52.878;6.168;2023-03-01T06:44:10;12.88;;;9.77;;
59147;SDS011;44930;52.878;6.168;2023-03-01T06:46:36;12.77;;;8.93;;
59147;SDS011;44930;52.878;6.168;2023-03-01T06:49:02;11.10;;;7.93;;
59147;SDS011;44930;52.878;6.168;2023-03-01T06:51:32;11.05;;;8.30;;
59147;SDS011;44930;52.878;6.168;2023-03-01T06:53:58;12.18;;;8.95;;
59147;SDS011;44930;52.878;6.168;2023-03-01T06:56:24;12.57;;;9.48;;
59147;SDS011;44930;52.878;6.168;2023-03-01T06:58:50;14.00;;;9.50;;
59147;SDS011;44930;52.878;6.168;2023-03-01T07:01:16;12.40;;;9.48;;
59147;SDS011;44930;52.878;6.168;2023-03-01T07:03:42;12.43;;;9.55;;
59147;SDS011;44930;52.878;6.168;2023-03-01T07:06:09;13.05;;;10.18;;
59147;SDS011;44930;52.878;6.168;2023-03-01T07:08:35;12.82;;;9.18;;
59147;SDS011;44930;52.878;6.168;2023-03-01T07:11:01;13.40;;;9.77;;
59147;SDS011;44930;52.878;6.168;2023-03-01T07:13:28;12.10;;;9.48;;
59147;SDS011;44930;52.878;6.168;2023-03-01T07:15:54;12.38;;;9.48;;
59147;SDS011;44930;52.878;6.168;2023-03-01T07:18:20;13.00;;;9.88;;
59147;SDS011;44930;52.878;6.168;2023-03-01T07:20:46;12.68;;;9.68;;
59147;SDS011;44930;52.878;6.168;2023-03-01T07:23:12;12.18;;;9.38;;
59147;SDS011;44930;52.878;6.168;2023-03-01T07:25:38;12.60;;;9.48;;
59147;SDS011;44930;52.878;6.168;2023-03-01T07:28:04;17.27;;;11.40;;
59147;SDS011;44930;52.878;6.168;2023-03-01T07:30:30;16.48;;;11.13;;
59147;SDS011;44930;52.878;6.168;2023-03-01T07:32:57;14.90;;;11.38;;
59147;SDS011;44930;52.878;6.168;2023-03-01T07:35:24;16.08;;;11.02;;
59147;SDS011;44930;52.878;6.168;2023-03-01T07:37:51;17.08;;;11.80;;
59147;SDS011;44930;52.878;6.168;2023-03-01T07:40:17;18.42;;;12.55;;
59147;SDS011;44930;52.878;6.168;2023-03-01T07:42:43;17.10;;;12.40;;
59147;SDS011;44930;52.878;6.168;2023-03-01T07:45:09;19.10;;;11.98;;
59147;SDS011;44930;52.878;6.168;2023-03-01T07:47:35;17.38;;;12.38;;
59147;SDS011;44930;52.878;6.168;2023-03-01T07:50:02;18.23;;;12.43;;
59147;SDS011;44930;52.878;6.168;2023-03-01T07:52:28;20.75;;;14.00;;
59147;SDS011;44930;52.878;6.168;2023-03-01T07:54:55;17.35;;;12.70;;
59147;SDS011;44930;52.878;6.168;2023-03-01T07:57:21;19.73;;;14.10;;
59147;SDS011;44930;52.878;6.168;2023-03-01T07:59:47;21.25;;;15.07;;
59147;SDS011;44930;52.878;6.168;2023-03-01T08:02:13;18.67;;;13.45;;
59147;SDS011;44930;52.878;6.168;2023-03-01T08:04:40;21.85;;;13.98;;
59147;SDS011;44930;52.878;6.168;2023-03-01T08:07:06;20.98;;;15.60;;
59147;SDS011;44930;52.878;6.168;2023-03-01T08:09:34;23.63;;;15.93;;
59147;SDS011;44930;52.878;6.168;2023-03-01T08:12:00;24.52;;;15.80;;
59147;SDS011;44930;52.878;6.168;2023-03-01T08:14:26;26.80;;;17.15;;
59147;SDS011;44930;52.878;6.168;2023-03-01T08:16:52;22.95;;;16.05;;
59147;SDS011;44930;52.878;6.168;2023-03-01T08:19:19;23.42;;;16.10;;
59147;SDS011;44930;52.878;6.168;2023-03-01T08:21:45;24.90;;;16.98;;
59147;SDS011;44930;52.878;6.168;2023-03-01T08:24:11;24.88;;;16.83;;
59147;SDS011;44930;52.878;6.168;2023-03-01T08:26:37;29.83;;;18.85;;
59147;SDS011;44930;52.878;6.168;2023-03-01T08:29:03;28.73;;;19.92;;
59147;SDS011;44930;52.878;6.168;2023-03-01T08:31:31;30.75;;;19.20;;
59147;SDS011;44930;52.878;6.168;2023-03-01T08:34:00;30.23;;;19.58;;
59147;SDS011;44930;52.878;6.168;2023-03-01T08:36:30;30.80;;;19.55;;
59147;SDS011;44930;52.878;6.168;2023-03-01T08:38:57;32.10;;;21.17;;
59147;SDS011;44930;52.878;6.168;2023-03-01T08:41:24;32.42;;;20.75;;
59147;SDS011;44930;52.878;6.168;2023-03-01T08:43:50;34.00;;;20.67;;
59147;SDS011;44930;52.878;6.168;2023-03-01T08:46:15;38.55;;;22.52;;
59147;SDS011;44930;52.878;6.168;2023-03-01T08:48:41;32.53;;;21.42;;
59147;SDS011;44930;52.878;6.168;2023-03-01T08:51:16;37.72;;;21.45;;
59147;SDS011;44930;52.878;6.168;2023-03-01T08:53:43;33.65;;;21.13;;
59147;SDS011;44930;52.878;6.168;2023-03-01T08:56:09;38.53;;;22.08;;
59147;SDS011;44930;52.878;6.168;2023-03-01T08:58:35;33.72;;;21.90;;
59147;SDS011;44930;52.878;6.168;2023-03-01T09:01:06;35.05;;;22.50;;
59147;SDS011;44930;52.878;6.168;2023-03-01T09:03:33;34.75;;;21.70;;
59147;SDS011;44930;52.878;6.168;2023-03-01T09:06:02;34.03;;;22.40;;
59147;SDS011;44930;52.878;6.168;2023-03-01T09:08:29;40.45;;;23.27;;
59147;SDS011;44930;52.878;6.168;2023-03-01T09:10:54;35.38;;;23.73;;
59147;SDS011;44930;52.878;6.168;2023-03-01T09:13:20;36.25;;;21.80;;
59147;SDS011;44930;52.878;6.168;2023-03-01T09:15:48;37.42;;;22.42;;
59147;SDS011;44930;52.878;6.168;2023-03-01T09:18:14;35.65;;;21.88;;
59147;SDS011;44930;52.878;6.168;2023-03-01T09:20:39;38.08;;;23.55;;
59147;SDS011;44930;52.878;6.168;2023-03-01T09:23:06;34.20;;;21.02;;
59147;SDS011;44930;52.878;6.168;2023-03-01T09:25:31;38.65;;;23.67;;
59147;SDS011;44930;52.878;6.168;2023-03-01T09:27:58;35.95;;;23.45;;
59147;SDS011;44930;52.878;6.168;2023-03-01T09:30:24;37.97;;;23.42;;
59147;SDS011;44930;52.878;6.168;2023-03-01T09:32:50;30.45;;;20.77;;
59147;SDS011;44930;52.878;6.168;2023-03-01T09:35:16;35.10;;;20.27;;
59147;SDS011;44930;52.878;6.168;2023-03-01T09:37:41;40.70;;;21.23;;
59147;SDS011;44930;52.878;6.168;2023-03-01T09:40:12;36.30;;;20.52;;
59147;SDS011;44930;52.878;6.168;2023-03-01T09:43:00;43.95;;;21.13;;
59147;SDS011;44930;52.878;6.168;2023-03-01T09:45:30;33.78;;;20.13;;
59147;SDS011;44930;52.878;6.168;2023-03-01T09:48:00;36.20;;;21.42;;
59147;SDS011;44930;52.878;6.168;2023-03-01T09:50:31;36.85;;;22.40;;
59147;SDS011;44930;52.878;6.168;2023-03-01T09:53:05;37.65;;;22.65;;
59147;SDS011;44930;52.878;6.168;2023-03-01T09:58:10;33.80;;;21.67;;
59147;SDS011;44930;52.878;6.168;2023-03-01T10:01:13;31.42;;;21.17;;
59147;SDS011;44930;52.878;6.168;2023-03-01T10:04:05;37.47;;;20.98;;
59147;SDS011;44930;52.878;6.168;2023-03-01T10:06:32;30.65;;;19.67;;
59147;SDS011;44930;52.878;6.168;2023-03-01T10:08:58;31.73;;;19.92;;
59147;SDS011;44930;52.878;6.168;2023-03-01T10:11:28;31.80;;;19.40;;
59147;SDS011;44930;52.878;6.168;2023-03-01T10:16:46;28.05;;;17.63;;
59147;SDS011;44930;52.878;6.168;2023-03-01T10:19:21;24.85;;;15.93;;
59147;SDS011;44930;52.878;6.168;2023-03-01T10:21:47;25.48;;;16.40;;
59147;SDS011;44930;52.878;6.168;2023-03-01T10:24:16;24.88;;;16.95;;
59147;SDS011;44930;52.878;6.168;2023-03-01T10:29:18;24.60;;;15.70;;
59147;SDS011;44930;52.878;6.168;2023-03-01T10:32:08;23.50;;;15.45;;
59147;SDS011;44930;52.878;6.168;2023-03-01T10:34:36;24.10;;;15.38;;
59147;SDS011;44930;52.878;6.168;2023-03-01T10:37:08;24.00;;;15.30;;
59147;SDS011;44930;52.878;6.168;2023-03-01T10:39:35;21.75;;;14.38;;
59147;SDS011;44930;52.878;6.168;2023-03-01T10:42:01;21.25;;;13.52;;
59147;SDS011;44930;52.878;6.168;2023-03-01T10:44:37;22.10;;;14.77;;
59147;SDS011;44930;52.878;6.168;2023-03-01T10:49:54;22.67;;;15.00;;
59147;SDS011;44930;52.878;6.168;2023-03-01T10:52:26;23.60;;;15.10;;
59147;SDS011;44930;52.878;6.168;2023-03-01T10:55:04;21.65;;;14.05;;
59147;SDS011;44930;52.878;6.168;2023-03-01T10:58:05;21.13;;;14.40;;
59147;SDS011;44930;52.878;6.168;2023-03-01T11:03:23;22.33;;;13.02;;
59147;SDS011;44930;52.878;6.168;2023-03-01T11:06:01;19.67;;;13.33;;
59147;SDS011;44930;52.878;6.168;2023-03-01T11:08:42;19.88;;;13.23;;
59147;SDS011;44930;52.878;6.168;2023-03-01T11:16:24;17.17;;;12.65;;
59147;SDS011;44930;52.878;6.168;2023-03-01T11:19:13;21.70;;;12.98;;
59147;SDS011;44930;52.878;6.168;2023-03-01T11:21:42;20.60;;;12.15;;
59147;SDS011;44930;52.878;6.168;2023-03-01T11:24:17;19.88;;;12.20;;
59147;SDS011;44930;52.878;6.168;2023-03-01T11:26:47;18.25;;;11.60;;
59147;SDS011;44930;52.878;6.168;2023-03-01T11:32:02;15.77;;;11.20;;
59147;SDS011;44930;52.878;6.168;2023-03-01T11:34:38;19.80;;;12.95;;
59147;SDS011;44930;52.878;6.168;2023-03-01T11:37:28;18.13;;;11.40;;
59147;SDS011;44930;52.878;6.168;2023-03-01T11:40:26;18.13;;;12.48;;
59147;SDS011;44930;52.878;6.168;2023-03-01T11:45:22;20.98;;;11.85;;
59147;SDS011;44930;52.878;6.168;2023-03-01T11:48:00;18.67;;;12.48;;
59147;SDS011;44930;52.878;6.168;2023-03-01T11:50:35;17.88;;;12.15;;
59147;SDS011;44930;52.878;6.168;2023-03-01T12:06:45;21.08;;;13.50;;
59147;SDS011;44930;52.878;6.168;2023-03-01T12:09:19;21.27;;;13.55;;
59147;SDS011;44930;52.878;6.168;2023-03-01T12:14:46;18.67;;;10.98;;
59147;SDS011;44930;52.878;6.168;2023-03-01T12:25:38;16.58;;;11.20;;
59147;SDS011;44930;52.878;6.168;2023-03-01T12:28:39;16.13;;;10.52;;
59147;SDS011;44930;52.878;6.168;2023-03-01T12:31:33;18.05;;;10.85;;
59147;SDS011;44930;52.878;6.168;2023-03-01T12:50:40;13.90;;;9.80;;
59147;SDS011;44930;52.878;6.168;2023-03-01T12:56:07;15.52;;;11.32;;
59147;SDS011;44930;52.878;6.168;2023-03-01T13:04:16;17.63;;;10.85;;
59147;SDS011;44930;52.878;6.168;2023-03-01T13:11:53;15.95;;;10.43;;
59147;SDS011;44930;52.878;6.168;2023-03-01T13:16:50;14.68;;;10.75;;
59147;SDS011;44930;52.878;6.168;2023-03-01T13:19:23;19.15;;;11.45;;
59147;SDS011;44930;52.878;6.168;2023-03-01T13:21:51;16.67;;;11.07;;
59147;SDS011;44930;52.878;6.168;2023-03-01T13:24:28;16.65;;;12.35;;
59147;SDS011;44930;52.878;6.168;2023-03-01T13:32:28;14.68;;;10.98;;
59147;SDS011;44930;52.878;6.168;2023-03-01T13:35:02;15.63;;;10.43;;
59147;SDS011;44930;52.878;6.168;2023-03-01T13:37:48;17.30;;;10.45;;
59147;SDS011;44930;52.878;6.168;2023-03-01T13:42:49;15.13;;;10.60;;
59147;SDS011;44930;52.878;6.168;2023-03-01T13:47:54;16.52;;;11.43;;
59147;SDS011;44930;52.878;6.168;2023-03-01T13:50:33;18.23;;;10.65;;
59147;SDS011;44930;52.878;6.168;2023-03-01T13:53:09;19.98;;;12.27;;
59147;SDS011;44930;52.878;6.168;2023-03-01T13:55:41;17.10;;;11.05;;
59147;SDS011;44930;52.878;6.168;2023-03-01T13:58:29;15.25;;;11.05;;
59147;SDS011;44930;52.878;6.168;2023-03-01T14:01:01;18.63;;;11.77;;
59147;SDS011;44930;52.878;6.168;2023-03-01T14:03:27;19.95;;;11.88;;
59147;SDS011;44930;52.878;6.168;2023-03-01T14:08:34;19.67;;;13.02;;
59147;SDS011;44930;52.878;6.168;2023-03-01T14:11:22;16.20;;;11.93;;
59147;SDS011;44930;52.878;6.168;2023-03-01T14:19:24;17.13;;;11.27;;
59147;SDS011;44930;52.878;6.168;2023-03-01T14:22:03;17.17;;;11.82;;
59147;SDS011;44930;52.878;6.168;2023-03-01T14:24:31;17.02;;;12.50;;
59147;SDS011;44930;52.878;6.168;2023-03-01T14:27:00;18.20;;;12.43;;
59147;SDS011;44930;52.878;6.168;2023-03-01T14:29:27;20.73;;;13.00;;
59147;SDS011;44930;52.878;6.168;2023-03-01T14:32:08;18.27;;;12.50;;
59147;SDS011;44930;52.878;6.168;2023-03-01T14:34:34;20.05;;;13.98;;
59147;SDS011;44930;52.878;6.168;2023-03-01T14:37:10;16.23;;;12.23;;
59147;SDS011;44930;52.878;6.168;2023-03-01T14:39:36;19.08;;;12.57;;
59147;SDS011;44930;52.878;6.168;2023-03-01T14:42:03;18.67;;;13.65;;
59147;SDS011;44930;52.878;6.168;2023-03-01T14:44:30;19.63;;;12.18;;
59147;SDS011;44930;52.878;6.168;2023-03-01T14:46:58;17.88;;;11.82;;
59147;SDS011;44930;52.878;6.168;2023-03-01T14:49:28;19.63;;;11.60;;
59147;SDS011;44930;52.878;6.168;2023-03-01T14:52:02;17.00;;;12.27;;
59147;SDS011;44930;52.878;6.168;2023-03-01T14:57:21;15.73;;;11.10;;
59147;SDS011;44930;52.878;6.168;2023-03-01T14:59:49;15.25;;;10.50;;
59147;SDS011;44930;52.878;6.168;2023-03-01T15:02:20;17.15;;;11.73;;
59147;SDS011;44930;52.878;6.168;2023-03-01T15:04:49;15.75;;;10.98;;
59147;SDS011;44930;52.878;6.168;2023-03-01T15:07:17;18.67;;;12.13;;
59147;SDS011;44930;52.878;6.168;2023-03-01T15:09:44;17.75;;;12.65;;
59147;SDS011;44930;52.878;6.168;2023-03-01T15:14:57;14.88;;;10.88;;
59147;SDS011;44930;52.878;6.168;2023-03-01T15:17:35;18.65;;;11.10;;
59147;SDS011;44930;52.878;6.168;2023-03-01T15:20:04;17.10;;;11.48;;
59147;SDS011;44930;52.878;6.168;2023-03-01T15:22:42;17.08;;;12.45;;
59147;SDS011;44930;52.878;6.168;2023-03-01T15:25:20;15.63;;;11.45;;
59147;SDS011;44930;52.878;6.168;2023-03-01T15:27:49;16.52;;;11.60;;
59147;SDS011;44930;52.878;6.168;2023-03-01T15:30:26;17.40;;;11.60;;
59147;SDS011;44930;52.878;6.168;2023-03-01T15:35:44;15.32;;;10.68;;
59147;SDS011;44930;52.878;6.168;2023-03-01T15:38:36;13.27;;;9.52;;
59147;SDS011;44930;52.878;6.168;2023-03-01T15:44:25;11.90;;;8.63;;
59147;SDS011;44930;52.878;6.168;2023-03-01T15:46:59;12.88;;;9.27;;
59147;SDS011;44930;52.878;6.168;2023-03-01T15:51:57;14.13;;;9.60;;
59147;SDS011;44930;52.878;6.168;2023-03-01T15:54:24;13.77;;;9.45;;
59147;SDS011;44930;52.878;6.168;2023-03-01T15:56:51;12.80;;;9.40;;
59147;SDS011;44930;52.878;6.168;2023-03-01T15:59:17;13.52;;;9.85;;
59147;SDS011;44930;52.878;6.168;2023-03-01T16:01:43;15.23;;;10.43;;
59147;SDS011;44930;52.878;6.168;2023-03-01T16:04:13;14.70;;;8.88;;
59147;SDS011;44930;52.878;6.168;2023-03-01T16:06:50;12.60;;;9.32;;
59147;SDS011;44930;52.878;6.168;2023-03-01T16:09:20;13.27;;;8.95;;
59147;SDS011;44930;52.878;6.168;2023-03-01T16:11:47;12.77;;;9.20;;
59147;SDS011;44930;52.878;6.168;2023-03-01T16:14:12;12.73;;;9.43;;
59147;SDS011;44930;52.878;6.168;2023-03-01T16:16:39;13.40;;;10.07;;
59147;SDS011;44930;52.878;6.168;2023-03-01T16:19:05;13.73;;;10.07;;
59147;SDS011;44930;52.878;6.168;2023-03-01T16:21:31;13.30;;;10.02;;
59147;SDS011;44930;52.878;6.168;2023-03-01T16:23:56;13.68;;;9.73;;
59147;SDS011;44930;52.878;6.168;2023-03-01T16:26:22;12.00;;;9.10;;
59147;SDS011;44930;52.878;6.168;2023-03-01T16:28:48;13.35;;;10.05;;
59147;SDS011;44930;52.878;6.168;2023-03-01T16:31:17;14.18;;;10.38;;
59147;SDS011;44930;52.878;6.168;2023-03-01T16:33:44;13.38;;;10.15;;
59147;SDS011;44930;52.878;6.168;2023-03-01T16:36:14;15.73;;;11.15;;